createdAt,value
2022-09-09T00:00:51.887Z,2.40
2022-09-09T00:03:21.789Z,2.30
2022-09-09T00:05:54.920Z,2.73
2022-09-09T00:08:24.737Z,2.70
2022-09-09T00:10:57.102Z,2.73
2022-09-09T00:13:28.722Z,2.50
2022-09-09T00:16:00.410Z,2.50
2022-09-09T00:18:31.540Z,2.47
2022-09-09T00:21:03.881Z,3.00
2022-09-09T00:23:33.154Z,2.57
2022-09-09T00:26:06.706Z,2.00
2022-09-09T00:28:39.912Z,2.67
2022-09-09T00:31:13.745Z,2.50
2022-09-09T00:33:43.473Z,2.47
2022-09-09T00:36:16.556Z,2.87
2022-09-09T00:38:46.167Z,2.20
2022-09-09T00:41:18.321Z,2.30
2022-09-09T00:43:49.492Z,2.33
2022-09-09T00:46:25.729Z,2.10
2022-09-09T00:48:57.065Z,2.37
2022-09-09T00:51:29.175Z,2.30
2022-09-09T00:54:11.826Z,2.30
2022-09-09T00:56:45.543Z,2.60
2022-09-09T00:59:19.546Z,2.30
2022-09-09T01:01:47.796Z,2.40
2022-09-09T01:04:19.309Z,2.40
2022-09-09T01:06:53.092Z,2.30
2022-09-09T01:09:25.359Z,2.00
2022-09-09T01:12:00.094Z,2.00
2022-09-09T01:14:40.962Z,1.83
2022-09-09T01:17:12.119Z,1.80
2022-09-09T01:19:48.147Z,2.10
2022-09-09T01:22:22.758Z,1.80
2022-09-09T01:24:57.302Z,1.80
2022-09-09T01:27:27.339Z,1.70
2022-09-09T01:29:56.038Z,1.43
2022-09-09T01:32:44.490Z,1.70
2022-09-09T01:35:14.425Z,1.40
2022-09-09T01:37:42.924Z,1.70
2022-09-09T01:40:11.373Z,1.93
2022-09-09T01:42:40.939Z,1.70
2022-09-09T01:45:09.712Z,1.67
2022-09-09T01:47:38.473Z,1.63
2022-09-09T01:50:07.013Z,1.80
2022-09-09T01:52:36.651Z,2.20
2022-09-09T01:55:04.938Z,2.10
2022-09-09T01:57:35.003Z,2.20
2022-09-09T02:00:08.997Z,2.20
2022-09-09T02:02:39.228Z,2.50
2022-09-09T02:05:13.662Z,2.77
2022-09-09T02:07:43.299Z,3.10
2022-09-09T02:10:13.237Z,3.30
2022-09-09T02:12:43.274Z,3.60
2022-09-09T02:15:16.882Z,3.70
2022-09-09T02:17:45.061Z,3.37
2022-09-09T02:20:15.263Z,3.87
2022-09-09T02:22:46.057Z,3.30
2022-09-09T02:25:16.193Z,4.10
2022-09-09T02:27:45.909Z,4.13
2022-09-09T02:30:15.919Z,4.00
2022-09-09T02:32:45.247Z,3.87
2022-09-09T02:35:15.290Z,4.10
2022-09-09T02:37:46.973Z,4.17
2022-09-09T02:40:16.264Z,3.97
2022-09-09T02:42:45.381Z,4.10
2022-09-09T02:45:14.871Z,4.00
2022-09-09T02:47:50.213Z,4.20
2022-09-09T02:50:20.013Z,3.77
2022-09-09T02:52:53.850Z,3.50
2022-09-09T02:55:26.216Z,3.20
2022-09-09T02:57:55.313Z,3.50
2022-09-09T03:00:26.997Z,3.50
2022-09-09T03:02:56.768Z,3.20
2022-09-09T03:05:25.049Z,3.53
2022-09-09T03:07:53.245Z,3.47
2022-09-09T03:10:21.400Z,2.90
2022-09-09T03:12:49.675Z,2.90
2022-09-09T03:15:18.163Z,2.83
2022-09-09T03:17:46.452Z,3.13
2022-09-09T03:20:16.191Z,3.20
2022-09-09T03:22:45.958Z,3.13
2022-09-09T03:25:14.249Z,2.90
2022-09-09T03:27:42.445Z,3.87
2022-09-09T03:30:10.940Z,3.10
2022-09-09T03:32:39.140Z,3.43
2022-09-09T03:35:07.874Z,3.30
2022-09-09T03:37:37.468Z,3.17
2022-09-09T03:40:06.563Z,3.70
2022-09-09T03:42:34.769Z,3.70
2022-09-09T03:45:02.974Z,3.27
2022-09-09T03:47:31.201Z,3.30
2022-09-09T03:49:59.387Z,3.63
2022-09-09T03:52:28.040Z,3.30
2022-09-09T03:54:57.897Z,3.27
2022-09-09T03:57:26.159Z,3.37
2022-09-09T03:59:54.339Z,3.30
2022-09-09T04:02:23.087Z,3.30
2022-09-09T04:04:51.278Z,2.80
2022-09-09T04:07:19.439Z,2.80
2022-09-09T04:09:47.622Z,3.10
2022-09-09T04:12:17.590Z,3.00
2022-09-09T04:14:45.785Z,3.20
2022-09-09T04:17:13.980Z,3.60
2022-09-09T04:19:43.237Z,3.10
2022-09-09T04:22:11.580Z,3.47
2022-09-09T04:24:39.782Z,3.37
2022-09-09T04:27:08.044Z,3.33
2022-09-09T04:29:37.614Z,2.97
2022-09-09T04:32:06.222Z,3.73
2022-09-09T04:34:34.533Z,3.20
2022-09-09T04:37:02.721Z,3.30
2022-09-09T04:39:30.939Z,3.50
2022-09-09T04:41:59.215Z,4.03
2022-09-09T04:44:27.380Z,3.83
2022-09-09T04:46:57.023Z,3.50
2022-09-09T04:49:25.378Z,3.67
2022-09-09T04:51:53.758Z,3.80
2022-09-09T04:54:22.433Z,4.07
2022-09-09T04:56:52.596Z,4.00
2022-09-09T04:59:20.777Z,3.90
2022-09-09T05:01:49.006Z,4.10
2022-09-09T05:04:19.726Z,4.00
2022-09-09T05:06:47.969Z,4.07
2022-09-09T05:09:16.204Z,4.13
2022-09-09T05:11:44.913Z,4.50
2022-09-09T05:14:13.418Z,3.80
2022-09-09T05:16:41.629Z,4.10
2022-09-09T05:19:10.081Z,3.67
2022-09-09T05:21:39.686Z,4.00
2022-09-09T05:24:08.670Z,4.33
2022-09-09T05:26:37.448Z,4.60
2022-09-09T05:29:07.011Z,4.60
2022-09-09T05:31:35.644Z,4.43
2022-09-09T05:34:03.962Z,4.27
2022-09-09T05:36:32.172Z,4.00
2022-09-09T05:39:02.302Z,4.27
2022-09-09T05:41:31.287Z,4.10
2022-09-09T05:44:02.083Z,3.90
2022-09-09T05:46:31.170Z,3.97
2022-09-09T05:48:59.503Z,4.10
2022-09-09T05:51:29.088Z,4.17
2022-09-09T05:53:59.441Z,3.80
2022-09-09T05:56:29.885Z,3.53
2022-09-09T05:58:58.800Z,3.67
2022-09-09T06:01:28.355Z,4.00
2022-09-09T06:03:56.545Z,3.40
2022-09-09T06:06:26.896Z,4.03
2022-09-09T06:08:57.201Z,3.23
2022-09-09T06:11:27.435Z,3.50
2022-09-09T06:13:56.993Z,3.80
2022-09-09T06:16:26.013Z,3.30
2022-09-09T06:18:54.901Z,3.33
2022-09-09T06:21:24.379Z,3.30
2022-09-09T06:23:57.770Z,3.20
2022-09-09T06:26:29.199Z,3.17
2022-09-09T06:28:59.369Z,3.23
2022-09-09T06:31:30.084Z,3.43
2022-09-09T06:33:59.245Z,3.13
2022-09-09T06:36:28.686Z,2.90
2022-09-09T06:38:56.924Z,3.23
2022-09-09T06:41:26.593Z,3.17
2022-09-09T06:43:56.440Z,3.20
2022-09-09T06:46:28.915Z,3.20
2022-09-09T06:49:00.676Z,3.20
2022-09-09T06:51:30.230Z,2.90
2022-09-09T06:53:59.448Z,3.07
2022-09-09T06:56:29.017Z,3.03
2022-09-09T06:58:57.884Z,3.00
2022-09-09T07:01:28.974Z,3.03
2022-09-09T07:03:59.734Z,2.80
2022-09-09T07:06:28.713Z,2.80
2022-09-09T07:08:58.730Z,3.10
2022-09-09T07:11:28.294Z,2.97
2022-09-09T07:13:57.797Z,3.20
2022-09-09T07:16:28.453Z,3.00
2022-09-09T07:18:58.721Z,3.03
2022-09-09T07:21:28.221Z,2.80
2022-09-09T07:23:57.023Z,3.13
2022-09-09T07:26:26.585Z,3.20
2022-09-09T07:28:54.845Z,3.50
2022-09-09T07:31:24.107Z,3.33
2022-09-09T07:33:53.744Z,3.07
2022-09-09T07:36:23.563Z,3.43
2022-09-09T07:38:52.501Z,3.10
2022-09-09T07:41:21.597Z,3.23
2022-09-09T07:43:51.082Z,3.33
2022-09-09T07:46:20.317Z,3.37
2022-09-09T07:48:52.198Z,3.30
2022-09-09T07:51:23.380Z,3.03
2022-09-09T07:53:54.348Z,2.80
2022-09-09T07:56:23.566Z,3.10
2022-09-09T07:58:52.260Z,3.10
2022-09-09T08:01:21.484Z,3.10
2022-09-09T08:03:56.555Z,2.67
2022-09-09T08:06:27.990Z,2.80
2022-09-09T08:08:56.835Z,2.50
2022-09-09T08:11:26.034Z,3.27
2022-09-09T08:13:57.916Z,2.60
2022-09-09T08:16:30.985Z,2.63
2022-09-09T08:18:59.409Z,2.80
2022-09-09T08:21:30.426Z,2.37
2022-09-09T08:23:59.519Z,2.57
2022-09-09T08:26:29.342Z,2.13
2022-09-09T08:28:58.570Z,2.53
2022-09-09T08:31:29.038Z,2.37
2022-09-09T08:33:58.162Z,2.30
2022-09-09T08:36:27.602Z,2.80
2022-09-09T08:38:57.679Z,2.30
2022-09-09T08:41:42.669Z,2.40
2022-09-09T08:44:13.535Z,2.53
2022-09-09T08:46:50.684Z,2.83
2022-09-09T08:49:28.855Z,2.28
2022-09-09T08:51:58.214Z,2.33
2022-09-09T08:54:51.256Z,2.50
2022-09-09T08:57:22.730Z,2.90
2022-09-09T08:59:51.994Z,2.60
2022-09-09T09:02:24.235Z,2.60
2022-09-09T09:05:01.346Z,2.80
2022-09-09T09:07:34.530Z,2.60
2022-09-09T09:10:18.968Z,2.90
2022-09-09T09:12:55.885Z,2.97
2022-09-09T09:15:28.311Z,2.73
2022-09-09T09:17:59.466Z,2.65
2022-09-09T09:20:35.547Z,2.47
2022-09-09T09:23:05.905Z,2.70
2022-09-09T09:25:37.659Z,2.33
2022-09-09T09:28:13.381Z,2.60
2022-09-09T09:30:43.021Z,2.60
2022-09-09T09:33:14.571Z,2.58
2022-09-09T09:35:44.542Z,2.72
2022-09-09T09:41:08.551Z,2.63
2022-09-09T09:43:37.480Z,2.80
2022-09-09T09:46:17.651Z,2.50
2022-09-09T09:48:47.361Z,2.42
2022-09-09T09:51:17.260Z,2.40
2022-09-09T09:53:45.667Z,2.22
2022-09-09T09:56:17.244Z,2.40
2022-09-09T09:58:52.322Z,2.42
2022-09-09T10:01:25.762Z,2.40
2022-09-09T10:03:54.583Z,2.60
2022-09-09T10:06:31.824Z,1.85
2022-09-09T10:09:00.181Z,2.05
2022-09-09T10:11:33.496Z,2.00
2022-09-09T10:14:06.572Z,2.25
2022-09-09T10:16:41.331Z,1.95
2022-09-09T10:19:13.630Z,2.13
2022-09-09T10:21:56.428Z,2.10
2022-09-09T10:24:49.778Z,2.10
2022-09-09T10:27:22.127Z,2.10
2022-09-09T10:29:57.833Z,1.45
2022-09-09T10:32:35.977Z,2.00
2022-09-09T10:35:07.485Z,2.03
2022-09-09T10:37:44.947Z,1.42
2022-09-09T10:40:27.274Z,1.88
2022-09-09T10:42:59.331Z,1.52
2022-09-09T10:45:34.878Z,2.00
2022-09-09T10:48:11.094Z,1.50
2022-09-09T10:51:01.098Z,1.38
2022-09-09T10:53:38.406Z,1.27
2022-09-09T10:56:09.611Z,1.60
2022-09-09T10:58:43.928Z,1.42
2022-09-09T11:01:15.118Z,1.83
2022-09-09T11:03:44.034Z,1.27
2022-09-09T11:06:15.969Z,1.70
2022-09-09T11:08:45.004Z,1.50
2022-09-09T11:11:17.728Z,1.48
2022-09-09T11:13:52.320Z,1.65
2022-09-09T11:16:25.192Z,1.90
2022-09-09T11:18:55.233Z,1.73
2022-09-09T11:21:25.904Z,1.60
2022-09-09T11:23:57.500Z,1.50
2022-09-09T11:26:30.342Z,1.58
2022-09-09T11:29:06.149Z,1.33
2022-09-09T11:31:44.111Z,2.05
2022-09-09T11:34:32.717Z,1.70
2022-09-09T11:37:15.495Z,1.65
2022-09-09T11:40:01.722Z,1.83
2022-09-09T11:42:30.146Z,1.75
2022-09-09T11:44:59.897Z,2.17
2022-09-09T11:47:31.325Z,1.67
2022-09-09T11:50:10.880Z,1.63
2022-09-09T11:52:40.067Z,2.00
2022-09-09T11:55:13.207Z,1.60
2022-09-09T11:57:43.099Z,1.77
2022-09-09T12:00:29.812Z,1.60
2022-09-09T12:03:00.184Z,1.92
2022-09-09T12:05:38.665Z,1.80
2022-09-09T12:08:07.600Z,1.95
2022-09-09T12:10:37.029Z,1.58
2022-09-09T12:13:17.925Z,1.52
2022-09-09T12:15:50.757Z,1.67
2022-09-09T12:18:27.110Z,1.70
2022-09-09T12:21:00.331Z,1.70
2022-09-09T12:23:33.938Z,1.40
2022-09-09T12:26:19.787Z,1.13
2022-09-09T12:28:54.679Z,1.20
2022-09-09T12:31:26.638Z,1.48
2022-09-09T12:33:56.662Z,1.45
2022-09-09T12:36:26.752Z,1.50
2022-09-09T12:38:55.605Z,1.33
2022-09-09T12:41:24.582Z,1.35
2022-09-09T12:43:53.013Z,1.00
2022-09-09T12:46:27.379Z,1.15
2022-09-09T12:48:57.701Z,1.38
2022-09-09T12:51:28.230Z,1.85
2022-09-09T12:53:57.465Z,1.10
2022-09-09T12:56:27.671Z,1.60
2022-09-09T12:58:57.091Z,1.17
2022-09-09T13:01:26.326Z,1.30
2022-09-09T13:03:55.133Z,1.17
2022-09-09T13:06:29.151Z,1.23
2022-09-09T13:08:59.527Z,1.17
2022-09-09T13:11:30.690Z,1.30
2022-09-09T13:13:59.817Z,1.55
2022-09-09T13:16:32.721Z,1.27
2022-09-09T13:19:02.758Z,1.40
2022-09-09T13:21:36.082Z,0.93
2022-09-09T13:24:05.315Z,1.10
2022-09-09T13:26:33.681Z,1.17
2022-09-09T13:29:11.229Z,1.13
2022-09-09T13:31:39.760Z,1.45
2022-09-09T13:34:14.118Z,1.42
2022-09-09T13:36:44.172Z,1.55
2022-09-09T13:39:18.245Z,1.30
2022-09-09T13:41:47.206Z,1.33
2022-09-09T13:44:20.166Z,1.17
2022-09-09T13:46:48.460Z,1.58
2022-09-09T13:49:23.937Z,1.30
2022-09-09T13:51:54.972Z,1.63
2022-09-09T13:54:23.823Z,1.40
2022-09-09T13:56:52.332Z,1.45
2022-09-09T13:59:22.537Z,0.98
2022-09-09T14:01:53.354Z,1.30
2022-09-09T14:04:22.795Z,1.42
2022-09-09T14:06:51.558Z,1.00
2022-09-09T14:09:21.200Z,1.35
2022-09-09T14:11:49.561Z,1.17
2022-09-09T14:14:17.836Z,1.30
2022-09-09T14:16:46.352Z,1.20
2022-09-09T14:19:15.294Z,1.88
2022-09-09T14:21:43.621Z,2.33
2022-09-09T14:24:12.566Z,1.58
2022-09-09T14:26:42.378Z,1.40
2022-09-09T14:29:10.607Z,1.70
2022-09-09T14:31:38.812Z,2.05
2022-09-09T14:34:07.090Z,1.90
2022-09-09T14:36:35.546Z,1.48
2022-09-09T14:39:03.717Z,1.70
2022-09-09T14:41:32.103Z,1.90
2022-09-09T14:44:01.745Z,1.70
2022-09-09T14:46:30.559Z,2.00
2022-09-09T14:48:58.749Z,1.20
2022-09-09T14:51:28.271Z,2.03
2022-09-09T14:53:58.104Z,1.90
2022-09-09T14:56:27.322Z,1.40
2022-09-09T14:58:56.186Z,1.40
2022-09-09T15:01:28.227Z,1.35
2022-09-09T15:03:58.765Z,1.20
2022-09-09T15:06:27.821Z,1.55
2022-09-09T15:08:58.629Z,1.27
2022-09-09T15:11:28.869Z,1.25
2022-09-09T15:13:57.198Z,1.55
2022-09-09T15:16:27.719Z,1.17
2022-09-09T15:18:59.997Z,1.08
2022-09-09T15:21:29.173Z,1.02
2022-09-09T15:23:57.816Z,1.20
2022-09-09T15:26:26.796Z,1.35
2022-09-09T15:28:55.171Z,0.82
2022-09-09T15:31:24.277Z,0.90
2022-09-09T15:33:54.538Z,1.08
2022-09-09T15:36:23.528Z,7.82
2022-09-09T15:38:52.038Z,0.90
2022-09-09T15:41:21.371Z,0.80
2022-09-09T15:43:50.906Z,1.23
2022-09-09T15:46:27.055Z,0.98
2022-09-09T15:48:57.418Z,1.13
2022-09-09T15:51:41.652Z,1.33
2022-09-09T15:54:13.108Z,1.10
2022-09-09T15:56:41.451Z,1.50
2022-09-09T15:59:09.707Z,1.10
2022-09-09T16:01:38.783Z,1.20
2022-09-09T16:04:08.472Z,1.20
2022-09-09T16:06:37.309Z,1.25
2022-09-09T16:09:06.478Z,1.05
2022-09-09T16:11:36.566Z,1.17
2022-09-09T16:14:06.269Z,1.53
2022-09-09T16:16:36.144Z,1.40
2022-09-09T16:19:06.306Z,1.30
2022-09-09T16:21:38.406Z,1.63
2022-09-09T16:24:07.737Z,1.50
2022-09-09T16:26:36.976Z,1.48
2022-09-09T16:29:05.710Z,1.87
2022-09-09T16:31:34.117Z,1.80
2022-09-09T16:34:04.193Z,1.80
2022-09-09T16:36:36.038Z,2.40
2022-09-09T16:39:06.454Z,1.80
2022-09-09T16:41:35.065Z,1.93
2022-09-09T16:44:04.606Z,1.30
2022-09-09T16:46:33.795Z,1.77
2022-09-09T16:49:03.227Z,1.90
2022-09-09T16:51:32.459Z,2.07
2022-09-09T16:54:01.409Z,1.37
2022-09-09T16:56:33.939Z,1.10
2022-09-09T16:59:03.118Z,1.47
2022-09-09T17:01:32.634Z,1.30
2022-09-09T17:04:02.728Z,1.40
2022-09-09T17:06:31.462Z,1.10
2022-09-09T17:09:00.596Z,1.17
2022-09-09T17:11:29.471Z,1.07
2022-09-09T17:14:00.048Z,0.90
2022-09-09T17:16:29.310Z,1.03
2022-09-09T17:18:58.021Z,1.30
2022-09-09T17:21:28.099Z,1.40
2022-09-09T17:23:56.736Z,1.40
2022-09-09T17:26:27.550Z,1.50
2022-09-09T17:28:59.377Z,1.37
2022-09-09T17:31:30.441Z,1.33
2022-09-09T17:34:00.099Z,1.13
2022-09-09T17:36:29.613Z,1.40
2022-09-09T17:38:57.852Z,0.87
2022-09-09T17:41:26.787Z,0.90
2022-09-09T17:43:55.681Z,1.23
2022-09-09T17:46:25.010Z,1.07
2022-09-09T17:48:55.631Z,1.67
2022-09-09T17:51:25.954Z,1.23
2022-09-09T17:53:55.686Z,1.47
2022-09-09T17:56:25.730Z,2.20
2022-09-09T17:58:54.750Z,1.53
2022-09-09T18:01:24.101Z,1.80
2022-09-09T18:03:52.918Z,1.60
2022-09-09T18:06:24.054Z,1.40
2022-09-09T18:08:53.010Z,1.70
2022-09-09T18:11:21.710Z,1.80
2022-09-09T18:13:51.266Z,1.43
2022-09-09T18:16:19.817Z,1.60
2022-09-09T18:18:48.296Z,1.50
2022-09-09T18:21:17.720Z,1.80
2022-09-09T18:23:49.430Z,1.80
2022-09-09T18:26:18.563Z,2.03
2022-09-09T18:28:50.245Z,2.03
2022-09-09T18:31:19.647Z,1.30
2022-09-09T18:33:50.443Z,1.83
2022-09-09T18:36:19.846Z,1.43
2022-09-09T18:38:49.651Z,1.47
2022-09-09T18:41:18.315Z,1.40
2022-09-09T18:43:46.872Z,1.60
2022-09-09T18:46:16.163Z,2.07
2022-09-09T18:48:45.748Z,1.97
2022-09-09T18:51:14.660Z,1.67
2022-09-09T18:53:42.969Z,1.73
2022-09-09T18:56:13.516Z,1.80
2022-09-09T18:58:43.956Z,1.90
2022-09-09T19:01:13.088Z,1.77
2022-09-09T19:03:41.627Z,1.83
2022-09-09T19:06:10.699Z,2.10
2022-09-09T19:08:39.615Z,1.60
2022-09-09T19:11:09.490Z,1.83
2022-09-09T19:13:39.766Z,2.03
2022-09-09T19:16:08.505Z,2.03
2022-09-09T19:18:37.721Z,2.17
2022-09-09T19:21:12.735Z,2.40
2022-09-09T19:23:41.316Z,2.20
2022-09-09T19:26:11.046Z,2.37
2022-09-09T19:28:40.789Z,2.30
2022-09-09T19:31:10.554Z,2.53
2022-09-09T19:33:39.199Z,2.33
2022-09-09T19:36:10.150Z,2.50
2022-09-09T19:38:38.795Z,2.30
2022-09-09T19:41:08.135Z,2.70
2022-09-09T19:43:36.415Z,2.70
2022-09-09T19:46:07.606Z,3.23
2022-09-09T19:48:37.485Z,2.70
2022-09-09T19:51:06.557Z,3.20
2022-09-09T19:53:37.665Z,3.40
2022-09-09T19:56:06.309Z,3.57
2022-09-09T19:58:35.788Z,3.73
2022-09-09T20:01:10.638Z,3.10
2022-09-09T20:03:39.758Z,2.80
2022-09-09T20:06:08.596Z,2.93
2022-09-09T20:08:37.614Z,3.33
2022-09-09T20:11:06.104Z,2.23
2022-09-09T20:13:35.262Z,2.27
2022-09-09T20:16:04.537Z,2.40
2022-09-09T20:18:35.116Z,2.40
2022-09-09T20:21:04.518Z,1.80
2022-09-09T20:23:33.741Z,2.20
2022-09-09T20:26:03.222Z,1.97
2022-09-09T20:28:31.435Z,1.90
2022-09-09T20:31:05.240Z,1.80
2022-09-09T20:33:35.772Z,1.83
2022-09-09T20:36:11.498Z,1.80
2022-09-09T20:38:42.849Z,1.60
2022-09-09T20:41:14.322Z,2.10
2022-09-09T20:43:48.885Z,2.10
2022-09-09T20:46:18.404Z,2.30
2022-09-09T20:48:48.690Z,2.30
2022-09-09T20:51:17.421Z,2.57
2022-09-09T20:53:45.699Z,2.93
2022-09-09T20:56:16.790Z,3.40
2022-09-09T20:58:45.222Z,3.97
2022-09-09T21:01:16.334Z,4.47
2022-09-09T21:03:44.608Z,4.23
2022-09-09T21:06:14.689Z,4.40
2022-09-09T21:08:43.221Z,3.97
2022-09-09T21:11:11.587Z,4.20
2022-09-09T21:13:40.379Z,4.20
2022-09-09T21:16:09.825Z,4.43
2022-09-09T21:18:40.432Z,4.37
2022-09-09T21:21:09.315Z,4.20
2022-09-09T21:23:39.133Z,4.10
2022-09-09T21:26:08.167Z,4.43
2022-09-09T21:28:36.501Z,4.30
2022-09-09T21:31:05.608Z,4.20
2022-09-09T21:33:34.705Z,4.20
2022-09-09T21:36:06.674Z,3.90
2022-09-09T21:38:35.483Z,4.30
2022-09-09T21:41:06.182Z,4.00
2022-09-09T21:43:34.750Z,4.33
2022-09-09T21:46:07.707Z,3.70
2022-09-09T21:48:36.133Z,3.80
2022-09-09T21:51:05.790Z,3.40
2022-09-09T21:53:34.647Z,4.20
2022-09-09T21:56:03.425Z,4.37
2022-09-09T21:58:32.964Z,5.40
2022-09-09T22:01:01.184Z,5.90
2022-09-09T22:03:29.429Z,6.23
2022-09-09T22:05:58.548Z,6.57
2022-09-09T22:08:26.751Z,7.27
2022-09-09T22:10:54.955Z,7.13
2022-09-09T22:13:23.179Z,8.10
2022-09-09T22:15:52.812Z,8.00
2022-09-09T22:18:21.053Z,8.10
2022-09-09T22:20:49.262Z,8.67
2022-09-09T22:23:17.535Z,8.60
2022-09-09T22:25:45.757Z,8.27
2022-09-09T22:28:14.026Z,8.80
2022-09-09T22:30:42.247Z,8.93
2022-09-09T22:33:12.434Z,9.17
2022-09-09T22:35:42.331Z,9.27
2022-09-09T22:38:11.111Z,9.47
2022-09-09T22:40:39.690Z,9.07
2022-09-09T22:43:08.054Z,9.27
2022-09-09T22:45:37.271Z,9.80
2022-09-09T22:48:06.004Z,10.20
2022-09-09T22:50:41.922Z,10.60
2022-09-09T22:53:13.134Z,10.53
2022-09-09T22:55:41.375Z,11.00
2022-09-09T22:58:09.597Z,11.10
2022-09-09T23:00:39.469Z,10.80
2022-09-09T23:03:07.919Z,10.83
2022-09-09T23:05:38.589Z,10.63
2022-09-09T23:08:07.213Z,11.40
2022-09-09T23:10:35.541Z,11.27
2022-09-09T23:13:03.933Z,11.53
2022-09-09T23:15:32.212Z,11.70
2022-09-09T23:18:00.391Z,11.37
2022-09-09T23:20:29.451Z,12.47
2022-09-09T23:22:59.030Z,11.43
2022-09-09T23:25:28.145Z,11.67
2022-09-09T23:27:56.342Z,11.30
2022-09-09T23:30:24.544Z,11.63
2022-09-09T23:32:52.740Z,11.13
2022-09-09T23:35:21.341Z,11.13
2022-09-09T23:37:49.629Z,10.67
2022-09-09T23:40:19.370Z,11.17
2022-09-09T23:42:47.910Z,11.13
2022-09-09T23:45:16.181Z,11.40
2022-09-09T23:47:44.358Z,10.60
2022-09-09T23:50:12.781Z,10.60
2022-09-09T23:52:44.419Z,11.10
2022-09-09T23:55:12.722Z,10.47
2022-09-09T23:57:42.261Z,10.57
